sensor_id;sensor_type;location;lat;lon;timestamp;pressure;altitude;pressure_sealevel;temperature;humidity
66486;BME280;53303;47.476;8.084;2023-09-19T00:00:36;95238.56;;;22.29;49.34
66486;BME280;53303;47.476;8.084;2023-09-19T00:03:02;95241.88;;;22.27;49.29
66486;BME280;53303;47.476;8.084;2023-09-19T00:05:34;95246.69;;;22.27;49.40
66486;BME280;53303;47.476;8.084;2023-09-19T00:08:00;95246.41;;;22.24;49.36
66486;BME280;53303;47.476;8.084;2023-09-19T00:10:29;95252.25;;;22.27;49.22
66486;BME280;53303;47.476;8.084;2023-09-19T00:13:01;95256.78;;;22.24;49.17
66486;BME280;53303;47.476;8.084;2023-09-19T00:15:31;95252.03;;;22.19;49.09
66486;BME280;53303;47.476;8.084;2023-09-19T00:18:00;95247.78;;;22.18;49.29
66486;BME280;53303;47.476;8.084;2023-09-19T00:20:26;95255.03;;;22.21;49.19
66486;BME280;53303;47.476;8.084;2023-09-19T00:22:52;95246.50;;;22.19;49.28
66486;BME280;53303;47.476;8.084;2023-09-19T00:25:18;95247.47;;;22.21;49.25
66486;BME280;53303;47.476;8.084;2023-09-19T00:27:44;95251.00;;;22.22;49.21
66486;BME280;53303;47.476;8.084;2023-09-19T00:30:13;95255.81;;;22.21;49.25
66486;BME280;53303;47.476;8.084;2023-09-19T00:32:49;95242.75;;;22.16;49.15
66486;BME280;53303;47.476;8.084;2023-09-19T00:35:14;95253.13;;;22.16;49.30
66486;BME280;53303;47.476;8.084;2023-09-19T00:37:41;95258.91;;;22.18;49.03
66486;BME280;53303;47.476;8.084;2023-09-19T00:40:08;95257.59;;;22.19;49.32
66486;BME280;53303;47.476;8.084;2023-09-19T00:42:43;95258.91;;;22.18;49.26
66486;BME280;53303;47.476;8.084;2023-09-19T00:45:10;95258.13;;;22.17;49.32
66486;BME280;53303;47.476;8.084;2023-09-19T00:47:46;95255.66;;;22.14;49.16
66486;BME280;53303;47.476;8.084;2023-09-19T00:50:14;95259.19;;;22.14;49.30
66486;BME280;53303;47.476;8.084;2023-09-19T00:52:43;95256.25;;;22.06;49.21
66486;BME280;53303;47.476;8.084;2023-09-19T00:55:10;95257.75;;;22.08;49.29
66486;BME280;53303;47.476;8.084;2023-09-19T00:57:40;95273.09;;;22.14;49.27
66486;BME280;53303;47.476;8.084;2023-09-19T01:00:07;95277.34;;;22.15;49.23
66486;BME280;53303;47.476;8.084;2023-09-19T01:02:34;95267.06;;;22.10;49.21
66486;BME280;53303;47.476;8.084;2023-09-19T01:05:00;95271.56;;;22.13;49.24
66486;BME280;53303;47.476;8.084;2023-09-19T01:07:30;95271.56;;;22.13;49.32
66486;BME280;53303;47.476;8.084;2023-09-19T01:10:02;95275.66;;;22.12;49.30
66486;BME280;53303;47.476;8.084;2023-09-19T01:12:39;95280.44;;;22.12;49.26
66486;BME280;53303;47.476;8.084;2023-09-19T01:17:57;95278.47;;;22.06;49.16
66486;BME280;53303;47.476;8.084;2023-09-19T01:20:39;95270.44;;;22.03;49.36
66486;BME280;53303;47.476;8.084;2023-09-19T01:32:03;95277.94;;;21.89;49.82
66486;BME280;53303;47.476;8.084;2023-09-19T01:34:49;95282.91;;;21.96;49.62
66486;BME280;53303;47.476;8.084;2023-09-19T01:37:19;95282.09;;;22.01;49.50
66486;BME280;53303;47.476;8.084;2023-09-19T01:39:51;95283.59;;;22.02;49.48
66486;BME280;53303;47.476;8.084;2023-09-19T01:48:28;95276.84;;;21.98;49.73
66486;BME280;53303;47.476;8.084;2023-09-19T01:51:01;95280.06;;;22.02;49.59
66486;BME280;53303;47.476;8.084;2023-09-19T01:53:33;95277.28;;;22.02;49.64
66486;BME280;53303;47.476;8.084;2023-09-19T01:55:59;95284.31;;;22.03;49.70
66486;BME280;53303;47.476;8.084;2023-09-19T01:58:31;95287.09;;;22.03;49.88
66486;BME280;53303;47.476;8.084;2023-09-19T02:01:01;95288.41;;;22.02;49.67
66486;BME280;53303;47.476;8.084;2023-09-19T02:03:27;95282.84;;;22.02;49.84
66486;BME280;53303;47.476;8.084;2023-09-19T02:05:54;95272.47;;;22.02;49.82
66486;BME280;53303;47.476;8.084;2023-09-19T02:08:21;95271.94;;;22.04;49.91
66486;BME280;53303;47.476;8.084;2023-09-19T02:10:50;95268.44;;;22.03;49.99
66486;BME280;53303;47.476;8.084;2023-09-19T02:13:17;95258.66;;;21.97;49.84
66486;BME280;53303;47.476;8.084;2023-09-19T02:15:44;95268.44;;;22.03;50.06
66486;BME280;53303;47.476;8.084;2023-09-19T02:18:10;95277.50;;;22.04;49.89
66486;BME280;53303;47.476;8.084;2023-09-19T02:20:40;95280.06;;;22.02;50.03
66486;BME280;53303;47.476;8.084;2023-09-19T02:23:06;95291.19;;;22.02;50.08
66486;BME280;53303;47.476;8.084;2023-09-19T02:25:31;95296.72;;;22.02;50.03
66486;BME280;53303;47.476;8.084;2023-09-19T02:27:59;95295.44;;;22.03;50.32
66486;BME280;53303;47.476;8.084;2023-09-19T02:30:26;95284.63;;;21.99;50.16
66486;BME280;53303;47.476;8.084;2023-09-19T02:32:52;95295.75;;;21.99;50.46
66486;BME280;53303;47.476;8.084;2023-09-19T02:35:17;95297.25;;;22.00;50.27
66486;BME280;53303;47.476;8.084;2023-09-19T02:37:46;95297.47;;;22.02;50.27
66486;BME280;53303;47.476;8.084;2023-09-19T02:40:12;95296.00;;;22.01;50.26
66486;BME280;53303;47.476;8.084;2023-09-19T02:43:03;95295.75;;;21.99;50.42
66486;BME280;53303;47.476;8.084;2023-09-19T02:45:30;95291.00;;;21.94;50.56
66486;BME280;53303;47.476;8.084;2023-09-19T02:47:56;95291.69;;;22.00;50.29
66486;BME280;53303;47.476;8.084;2023-09-19T02:50:22;95294.47;;;22.00;50.36
66486;BME280;53303;47.476;8.084;2023-09-19T02:52:48;95277.69;;;21.87;50.33
66486;BME280;53303;47.476;8.084;2023-09-19T02:55:15;95290.97;;;22.00;50.41
66486;BME280;53303;47.476;8.084;2023-09-19T02:57:46;95288.69;;;21.98;50.38
66486;BME280;53303;47.476;8.084;2023-09-19T03:00:14;95293.72;;;22.00;50.46
66486;BME280;53303;47.476;8.084;2023-09-19T03:02:40;95288.19;;;22.00;50.32
66486;BME280;53303;47.476;8.084;2023-09-19T03:05:07;95294.47;;;22.00;50.26
66486;BME280;53303;47.476;8.084;2023-09-19T03:07:32;95290.19;;;21.99;50.37
66486;BME280;53303;47.476;8.084;2023-09-19T03:09:58;95284.91;;;21.96;50.42
66486;BME280;53303;47.476;8.084;2023-09-19T03:12:26;95295.06;;;21.93;50.33
66486;BME280;53303;47.476;8.084;2023-09-19T03:14:52;95289.00;;;21.95;50.36
66486;BME280;53303;47.476;8.084;2023-09-19T03:17:17;95297.78;;;21.99;50.45
66486;BME280;53303;47.476;8.084;2023-09-19T03:19:45;95301.28;;;21.99;50.30
66486;BME280;53303;47.476;8.084;2023-09-19T03:22:10;95297.78;;;21.99;50.36
66486;BME280;53303;47.476;8.084;2023-09-19T03:24:38;95301.28;;;21.99;50.48
66486;BME280;53303;47.476;8.084;2023-09-19T03:27:03;95291.78;;;21.95;50.43
66486;BME280;53303;47.476;8.084;2023-09-19T03:29:29;95297.78;;;21.99;50.23
66486;BME280;53303;47.476;8.084;2023-09-19T03:31:54;95299.81;;;21.98;50.28
66486;BME280;53303;47.476;8.084;2023-09-19T03:34:20;95288.00;;;21.92;50.11
66486;BME280;53303;47.476;8.084;2023-09-19T03:36:48;95299.81;;;21.98;50.31
66486;BME280;53303;47.476;8.084;2023-09-19T03:39:16;95292.75;;;21.97;50.41
66486;BME280;53303;47.476;8.084;2023-09-19T03:41:43;95291.28;;;21.91;50.29
66486;BME280;53303;47.476;8.084;2023-09-19T03:44:11;95285.22;;;21.92;50.40
66486;BME280;53303;47.476;8.084;2023-09-19T03:46:36;95287.47;;;21.94;50.42
66486;BME280;53303;47.476;8.084;2023-09-19T03:49:02;95294.03;;;21.96;50.43
66486;BME280;53303;47.476;8.084;2023-09-19T03:51:28;95300.84;;;21.95;50.46
66486;BME280;53303;47.476;8.084;2023-09-19T03:53:53;95297.09;;;21.93;50.32
66486;BME280;53303;47.476;8.084;2023-09-19T03:56:19;95290.78;;;21.92;50.45
66486;BME280;53303;47.476;8.084;2023-09-19T03:58:44;95293.03;;;21.94;50.62
66486;BME280;53303;47.476;8.084;2023-09-19T04:01:14;95285.50;;;21.89;50.45
66486;BME280;53303;47.476;8.084;2023-09-19T04:03:44;95285.50;;;21.89;50.72
66486;BME280;53303;47.476;8.084;2023-09-19T04:06:16;95289.06;;;21.89;51.31
66486;BME280;53303;47.476;8.084;2023-09-19T04:08:42;95290.56;;;21.90;51.16
66486;BME280;53303;47.476;8.084;2023-09-19T04:11:09;95279.22;;;21.88;51.44
66486;BME280;53303;47.476;8.084;2023-09-19T04:13:35;95292.06;;;21.91;51.41
66486;BME280;53303;47.476;8.084;2023-09-19T04:16:01;95300.34;;;21.97;51.23
66486;BME280;53303;47.476;8.084;2023-09-19T04:18:29;95302.59;;;21.98;51.33
66486;BME280;53303;47.476;8.084;2023-09-19T04:20:56;95303.34;;;21.99;51.46
66486;BME280;53303;47.476;8.084;2023-09-19T04:23:22;95297.03;;;21.98;51.42
66486;BME280;53303;47.476;8.084;2023-09-19T04:25:52;95302.38;;;21.96;51.43
66486;BME280;53303;47.476;8.084;2023-09-19T04:28:17;95304.63;;;21.98;51.45
66486;BME280;53303;47.476;8.084;2023-09-19T04:30:43;95303.41;;;21.93;51.35
66486;BME280;53303;47.476;8.084;2023-09-19T04:33:08;95316.78;;;21.95;51.66
66486;BME280;53303;47.476;8.084;2023-09-19T04:35:34;95318.56;;;21.92;51.59
66486;BME280;53303;47.476;8.084;2023-09-19T04:38:00;95334.63;;;21.99;51.52
66486;BME280;53303;47.476;8.084;2023-09-19T04:40:25;95331.19;;;21.93;51.65
66486;BME280;53303;47.476;8.084;2023-09-19T04:42:57;95342.22;;;21.99;51.52
66486;BME280;53303;47.476;8.084;2023-09-19T04:45:26;95342.00;;;21.97;51.58
66486;BME280;53303;47.476;8.084;2023-09-19T04:47:53;95345.00;;;21.99;51.60
66486;BME280;53303;47.476;8.084;2023-09-19T04:50:18;95344.03;;;21.96;51.71
66486;BME280;53303;47.476;8.084;2023-09-19T04:52:44;95345.00;;;21.99;51.71
66486;BME280;53303;47.476;8.084;2023-09-19T04:55:13;95358.16;;;21.98;51.83
66486;BME280;53303;47.476;8.084;2023-09-19T04:57:42;95345.81;;;21.94;51.85
66486;BME280;53303;47.476;8.084;2023-09-19T05:00:08;95354.09;;;21.99;51.95
66486;BME280;53303;47.476;8.084;2023-09-19T05:02:39;95357.41;;;21.98;51.97
66486;BME280;53303;47.476;8.084;2023-09-19T05:05:07;95351.06;;;21.97;51.98
66486;BME280;53303;47.476;8.084;2023-09-19T05:07:33;95355.38;;;21.98;51.77
66486;BME280;53303;47.476;8.084;2023-09-19T05:09:59;95360.19;;;21.98;51.90
66486;BME280;53303;47.476;8.084;2023-09-19T05:12:26;95353.41;;;21.93;51.86
66486;BME280;53303;47.476;8.084;2023-09-19T05:14:53;95351.38;;;21.94;51.72
66486;BME280;53303;47.476;8.084;2023-09-19T05:17:18;95362.97;;;21.98;51.89
66486;BME280;53303;47.476;8.084;2023-09-19T05:19:44;95356.69;;;21.92;51.81
66486;BME280;53303;47.476;8.084;2023-09-19T05:22:11;95373.53;;;21.99;51.97
66486;BME280;53303;47.476;8.084;2023-09-19T05:24:37;95377.59;;;21.98;52.14
66486;BME280;53303;47.476;8.084;2023-09-19T05:27:04;95367.34;;;21.88;51.95
66486;BME280;53303;47.476;8.084;2023-09-19T05:29:32;95375.84;;;21.95;51.88
66486;BME280;53303;47.476;8.084;2023-09-19T05:31:59;95370.06;;;21.93;51.98
66486;BME280;53303;47.476;8.084;2023-09-19T05:34:25;95370.81;;;21.94;51.94
66486;BME280;53303;47.476;8.084;2023-09-19T05:36:55;95363.53;;;21.91;51.89
66486;BME280;53303;47.476;8.084;2023-09-19T05:39:21;95388.72;;;21.98;51.96
66486;BME280;53303;47.476;8.084;2023-09-19T05:41:46;95378.94;;;21.92;52.12
66486;BME280;53303;47.476;8.084;2023-09-19T05:44:13;95393.53;;;21.98;51.97
66486;BME280;53303;47.476;8.084;2023-09-19T05:46:39;95392.75;;;21.97;52.02
66486;BME280;53303;47.476;8.084;2023-09-19T05:49:09;95406.13;;;21.99;51.94
66486;BME280;53303;47.476;8.084;2023-09-19T05:51:35;95391.00;;;21.94;52.09
66486;BME280;53303;47.476;8.084;2023-09-19T05:54:00;95398.59;;;21.94;51.85
66486;BME280;53303;47.476;8.084;2023-09-19T05:56:26;95388.78;;;21.93;52.01
66486;BME280;53303;47.476;8.084;2023-09-19T05:58:52;95398.31;;;21.97;52.16
66486;BME280;53303;47.476;8.084;2023-09-19T06:01:18;95397.34;;;21.95;52.21
66486;BME280;53303;47.476;8.084;2023-09-19T06:03:44;95410.19;;;21.98;52.04
66486;BME280;53303;47.476;8.084;2023-09-19T06:06:11;95399.41;;;21.89;51.95
66486;BME280;53303;47.476;8.084;2023-09-19T06:08:37;95399.63;;;21.91;52.05
66486;BME280;53303;47.476;8.084;2023-09-19T06:11:03;95414.97;;;21.97;52.00
66486;BME280;53303;47.476;8.084;2023-09-19T06:13:32;95418.53;;;21.98;52.12
66486;BME280;53303;47.476;8.084;2023-09-19T06:15:59;95413.22;;;21.94;51.98
66486;BME280;53303;47.476;8.084;2023-09-19T06:18:28;95415.75;;;21.98;52.02
66486;BME280;53303;47.476;8.084;2023-09-19T06:20:54;95422.78;;;21.99;52.01
66486;BME280;53303;47.476;8.084;2023-09-19T06:23:21;95422.06;;;21.98;51.96
66486;BME280;53303;47.476;8.084;2023-09-19T06:25:46;95417.75;;;21.97;52.03
66486;BME280;53303;47.476;8.084;2023-09-19T06:28:14;95425.56;;;21.99;51.90
66486;BME280;53303;47.476;8.084;2023-09-19T06:30:45;95422.78;;;21.99;52.03
66486;BME280;53303;47.476;8.084;2023-09-19T06:33:10;95415.25;;;21.94;52.04
66486;BME280;53303;47.476;8.084;2023-09-19T06:35:38;95417.97;;;21.99;51.93
66486;BME280;53303;47.476;8.084;2023-09-19T06:38:04;95407.41;;;21.98;51.99
66486;BME280;53303;47.476;8.084;2023-09-19T06:40:30;95413.72;;;21.98;51.87
66486;BME280;53303;47.476;8.084;2023-09-19T06:42:56;95417.25;;;21.99;51.83
66486;BME280;53303;47.476;8.084;2023-09-19T06:45:22;95427.59;;;21.98;51.91
66486;BME280;53303;47.476;8.084;2023-09-19T06:47:51;95420.06;;;21.93;51.97
66486;BME280;53303;47.476;8.084;2023-09-19T06:50:17;95426.38;;;21.94;51.98
66486;BME280;53303;47.476;8.084;2023-09-19T06:52:45;95424.81;;;21.98;52.09
66486;BME280;53303;47.476;8.084;2023-09-19T06:55:14;95428.63;;;21.95;52.15
66486;BME280;53303;47.476;8.084;2023-09-19T06:57:43;95433.16;;;21.98;52.00
66486;BME280;53303;47.476;8.084;2023-09-19T07:00:10;95424.13;;;21.92;52.04
66486;BME280;53303;47.476;8.084;2023-09-19T07:03:05;95441.50;;;21.98;52.04
66486;BME280;53303;47.476;8.084;2023-09-19T07:05:34;95436.22;;;21.95;51.99
66486;BME280;53303;47.476;8.084;2023-09-19T07:08:04;95428.41;;;21.93;51.93
66486;BME280;53303;47.476;8.084;2023-09-19T07:10:30;95432.16;;;21.96;52.04
66486;BME280;53303;47.476;8.084;2023-09-19T07:12:59;95433.16;;;21.98;51.84
66486;BME280;53303;47.476;8.084;2023-09-19T07:15:29;95434.66;;;21.99;51.94
66486;BME280;53303;47.476;8.084;2023-09-19T07:17:56;95439.47;;;21.99;51.92
66486;BME280;53303;47.476;8.084;2023-09-19T07:20:23;95452.63;;;21.98;52.06
66486;BME280;53303;47.476;8.084;2023-09-19T07:22:52;95443.03;;;21.94;51.60
66486;BME280;53303;47.476;8.084;2023-09-19T07:25:17;95452.63;;;21.98;51.87
66486;BME280;53303;47.476;8.084;2023-09-19T07:27:43;95452.63;;;21.98;51.80
66486;BME280;53303;47.476;8.084;2023-09-19T07:30:09;95457.41;;;21.98;51.90
66486;BME280;53303;47.476;8.084;2023-09-19T07:32:37;95459.44;;;21.97;51.94
66486;BME280;53303;47.476;8.084;2023-09-19T07:35:04;95460.72;;;21.96;51.92
66486;BME280;53303;47.476;8.084;2023-09-19T07:37:31;95461.22;;;21.95;51.91
66486;BME280;53303;47.476;8.084;2023-09-19T07:39:59;95461.22;;;21.95;52.07
66486;BME280;53303;47.476;8.084;2023-09-19T07:42:24;95467.25;;;21.99;51.86
66486;BME280;53303;47.476;8.084;2023-09-19T07:44:51;95470.03;;;21.99;52.00
66486;BME280;53303;47.476;8.084;2023-09-19T07:47:16;95469.34;;;21.93;51.90
66486;BME280;53303;47.476;8.084;2023-09-19T07:49:42;95476.09;;;21.97;51.92
66486;BME280;53303;47.476;8.084;2023-09-19T07:52:08;95472.34;;;21.95;51.96
66486;BME280;53303;47.476;8.084;2023-09-19T07:54:35;95447.97;;;21.82;52.10
66486;BME280;53303;47.476;8.084;2023-09-19T07:57:04;95470.31;;;21.95;52.03
66486;BME280;53303;47.476;8.084;2023-09-19T07:59:29;95487.97;;;21.98;52.03
66486;BME280;53303;47.476;8.084;2023-09-19T08:01:55;95483.16;;;21.98;52.12
66486;BME280;53303;47.476;8.084;2023-09-19T08:04:24;95465.56;;;21.90;51.98
66486;BME280;53303;47.476;8.084;2023-09-19T08:06:51;95480.41;;;21.98;51.96
66486;BME280;53303;47.476;8.084;2023-09-19T08:09:21;95471.81;;;21.96;52.05
66486;BME280;53303;47.476;8.084;2023-09-19T08:11:47;95470.81;;;21.94;52.05
66486;BME280;53303;47.476;8.084;2023-09-19T08:14:13;95477.13;;;21.94;52.11
66486;BME280;53303;47.476;8.084;2023-09-19T08:16:40;95474.13;;;21.92;52.13
66486;BME280;53303;47.476;8.084;2023-09-19T08:19:09;95498.56;;;21.99;52.02
66486;BME280;53303;47.476;8.084;2023-09-19T08:21:35;95491.50;;;21.98;52.12
66486;BME280;53303;47.476;8.084;2023-09-19T08:24:01;95487.44;;;21.99;52.15
66486;BME280;53303;47.476;8.084;2023-09-19T08:26:33;95479.16;;;21.94;52.24
66486;BME280;53303;47.476;8.084;2023-09-19T08:29:01;95491.72;;;22.00;52.18
66486;BME280;53303;47.476;8.084;2023-09-19T08:31:33;95474.34;;;21.94;52.28
66486;BME280;53303;47.476;8.084;2023-09-19T08:34:01;95485.19;;;21.98;52.33
66486;BME280;53303;47.476;8.084;2023-09-19T08:36:26;95495.53;;;21.97;52.26
66486;BME280;53303;47.476;8.084;2023-09-19T08:38:51;95486.94;;;22.01;52.28
66486;BME280;53303;47.476;8.084;2023-09-19T08:41:17;95492.47;;;22.01;52.26
66486;BME280;53303;47.476;8.084;2023-09-19T08:43:42;95488.44;;;22.02;52.30
66486;BME280;53303;47.476;8.084;2023-09-19T08:46:16;95495.25;;;22.01;52.23
66486;BME280;53303;47.476;8.084;2023-09-19T08:49:03;95497.81;;;21.99;52.34
66486;BME280;53303;47.476;8.084;2023-09-19T08:51:44;95498.56;;;21.99;52.42
66486;BME280;53303;47.476;8.084;2023-09-19T08:54:25;95489.00;;;21.95;52.22
66486;BME280;53303;47.476;8.084;2023-09-19T08:56:54;95493.53;;;21.98;52.34
66486;BME280;53303;47.476;8.084;2023-09-19T08:59:22;95494.00;;;22.02;52.32
66486;BME280;53303;47.476;8.084;2023-09-19T09:01:53;95491.44;;;22.04;52.42
66486;BME280;53303;47.476;8.084;2023-09-19T09:04:19;95494.22;;;22.04;52.47
66486;BME280;53303;47.476;8.084;2023-09-19T09:06:45;95484.66;;;21.99;52.45
66486;BME280;53303;47.476;8.084;2023-09-19T09:09:15;95487.97;;;21.98;52.29
66486;BME280;53303;47.476;8.084;2023-09-19T09:11:40;95498.53;;;22.05;52.31
66486;BME280;53303;47.476;8.084;2023-09-19T09:14:06;95493.25;;;22.01;52.21
66486;BME280;53303;47.476;8.084;2023-09-19T09:16:35;95494.22;;;22.04;52.36
66486;BME280;53303;47.476;8.084;2023-09-19T09:19:00;95491.44;;;22.04;52.35
66486;BME280;53303;47.476;8.084;2023-09-19T09:21:27;95484.66;;;21.99;52.24
66486;BME280;53303;47.476;8.084;2023-09-19T09:23:53;95485.94;;;21.98;52.20
66486;BME280;53303;47.476;8.084;2023-09-19T09:26:41;95500.31;;;22.02;52.27
66486;BME280;53303;47.476;8.084;2023-09-19T09:29:10;95506.88;;;22.05;52.29
66486;BME280;53303;47.476;8.084;2023-09-19T09:31:36;95507.59;;;22.05;52.49
66486;BME280;53303;47.476;8.084;2023-09-19T09:34:03;95498.81;;;22.01;52.46
66486;BME280;53303;47.476;8.084;2023-09-19T09:36:39;95497.75;;;22.04;52.32
66486;BME280;53303;47.476;8.084;2023-09-19T09:39:06;95489.81;;;21.90;52.64
66486;BME280;53303;47.476;8.084;2023-09-19T09:41:52;95489.69;;;22.01;52.45
66486;BME280;53303;47.476;8.084;2023-09-19T09:44:18;95494.22;;;22.04;52.39
66486;BME280;53303;47.476;8.084;2023-09-19T09:46:45;95492.97;;;22.05;52.49
66486;BME280;53303;47.476;8.084;2023-09-19T09:49:27;95497.00;;;22.04;52.41
66486;BME280;53303;47.476;8.084;2023-09-19T09:54:34;95506.31;;;22.06;52.55
66486;BME280;53303;47.476;8.084;2023-09-19T09:57:08;95498.25;;;22.03;52.52
66486;BME280;53303;47.476;8.084;2023-09-19T10:02:19;95486.41;;;22.02;52.42
66486;BME280;53303;47.476;8.084;2023-09-19T10:04:54;95473.84;;;21.96;52.60
66486;BME280;53303;47.476;8.084;2023-09-19T10:07:29;95499.50;;;22.08;52.59
66486;BME280;53303;47.476;8.084;2023-09-19T10:10:05;95496.72;;;22.08;52.36
66486;BME280;53303;47.476;8.084;2023-09-19T10:12:47;95497.00;;;22.04;52.55
66486;BME280;53303;47.476;8.084;2023-09-19T10:15:15;95502.28;;;22.08;52.51
66486;BME280;53303;47.476;8.084;2023-09-19T10:17:43;95498.97;;;22.09;52.57
66486;BME280;53303;47.476;8.084;2023-09-19T10:20:17;95497.97;;;22.06;52.59
66486;BME280;53303;47.476;8.084;2023-09-19T10:22:57;95494.97;;;22.04;52.60
66486;BME280;53303;47.476;8.084;2023-09-19T10:25:28;95498.25;;;22.09;52.77
66486;BME280;53303;47.476;8.084;2023-09-19T10:27:57;95487.16;;;22.03;52.76
66486;BME280;53303;47.476;8.084;2023-09-19T10:30:29;95489.91;;;22.09;52.65
66486;BME280;53303;47.476;8.084;2023-09-19T10:33:04;95483.56;;;22.08;52.67
66486;BME280;53303;47.476;8.084;2023-09-19T10:35:32;95489.91;;;22.09;52.65
66486;BME280;53303;47.476;8.084;2023-09-19T10:38:01;95492.91;;;22.11;52.72
66486;BME280;53303;47.476;8.084;2023-09-19T10:40:28;95492.44;;;22.06;52.71
66486;BME280;53303;47.476;8.084;2023-09-19T10:43:04;95493.66;;;22.11;52.57
66486;BME280;53303;47.476;8.084;2023-09-19T10:45:35;95486.84;;;22.12;52.83
66486;BME280;53303;47.476;8.084;2023-09-19T10:48:01;95482.03;;;22.13;52.68
66486;BME280;53303;47.476;8.084;2023-09-19T10:50:36;95490.34;;;22.13;52.67
66486;BME280;53303;47.476;8.084;2023-09-19T10:53:07;95485.53;;;22.13;52.75
66486;BME280;53303;47.476;8.084;2023-09-19T10:55:36;95488.31;;;22.13;52.61
66486;BME280;53303;47.476;8.084;2023-09-19T10:58:04;95476.25;;;22.11;52.78
66486;BME280;53303;47.476;8.084;2023-09-19T11:01:08;95475.25;;;22.08;52.65
66486;BME280;53303;47.476;8.084;2023-09-19T11:03:40;95469.38;;;22.12;52.71
66486;BME280;53303;47.476;8.084;2023-09-19T11:06:18;95466.16;;;22.08;52.43
66486;BME280;53303;47.476;8.084;2023-09-19T11:09:03;95471.94;;;22.10;52.71
66486;BME280;53303;47.476;8.084;2023-09-19T11:30:40;95454.69;;;22.17;52.58
66486;BME280;53303;47.476;8.084;2023-09-19T11:33:25;95460.03;;;22.15;52.67
66486;BME280;53303;47.476;8.084;2023-09-19T11:36:06;95455.44;;;22.17;52.74
66486;BME280;53303;47.476;8.084;2023-09-19T11:49:27;95449.59;;;22.21;52.89
66486;BME280;53303;47.476;8.084;2023-09-19T11:51:57;95450.59;;;22.23;52.94
66486;BME280;53303;47.476;8.084;2023-09-19T11:54:29;95443.00;;;22.24;52.93
66486;BME280;53303;47.476;8.084;2023-09-19T11:56:57;95438.47;;;22.27;52.87
66486;BME280;53303;47.476;8.084;2023-09-19T11:59:31;95439.22;;;22.27;52.86
66486;BME280;53303;47.476;8.084;2023-09-19T12:02:01;95440.72;;;22.28;52.77
66486;BME280;53303;47.476;8.084;2023-09-19T12:04:44;95431.41;;;22.20;52.77
66486;BME280;53303;47.476;8.084;2023-09-19T12:07:14;95444.75;;;22.27;53.09
66486;BME280;53303;47.476;8.084;2023-09-19T12:09:45;95430.06;;;22.32;52.89
66486;BME280;53303;47.476;8.084;2023-09-19T12:12:25;95433.34;;;22.31;52.96
66486;BME280;53303;47.476;8.084;2023-09-19T12:14:55;95409.38;;;22.28;52.97
66486;BME280;53303;47.476;8.084;2023-09-19T12:17:43;95423.97;;;22.34;52.86
66486;BME280;53303;47.476;8.084;2023-09-19T12:20:09;95428.47;;;22.37;52.84
66486;BME280;53303;47.476;8.084;2023-09-19T12:22:44;95421.94;;;22.34;52.86
66486;BME280;53303;47.476;8.084;2023-09-19T12:25:11;95421.13;;;22.39;52.48
66486;BME280;53303;47.476;8.084;2023-09-19T12:27:44;95418.66;;;22.36;52.85
66486;BME280;53303;47.476;8.084;2023-09-19T12:30:13;95418.34;;;22.39;52.93
66486;BME280;53303;47.476;8.084;2023-09-19T12:32:43;95413.59;;;22.34;52.81
66486;BME280;53303;47.476;8.084;2023-09-19T12:35:10;95422.09;;;22.42;52.90
66486;BME280;53303;47.476;8.084;2023-09-19T12:37:45;95410.00;;;22.39;52.89
66486;BME280;53303;47.476;8.084;2023-09-19T12:40:20;95407.44;;;22.41;52.84
66486;BME280;53303;47.476;8.084;2023-09-19T12:42:53;95407.69;;;22.43;52.52
66486;BME280;53303;47.476;8.084;2023-09-19T12:45:24;95393.56;;;22.41;52.93
66486;BME280;53303;47.476;8.084;2023-09-19T12:48:21;95402.13;;;22.43;52.82
66486;BME280;53303;47.476;8.084;2023-09-19T12:51:04;95410.22;;;22.41;52.69
66486;BME280;53303;47.476;8.084;2023-09-19T12:53:32;95406.34;;;22.50;52.78
66486;BME280;53303;47.476;8.084;2023-09-19T12:56:05;95395.28;;;22.45;52.87
66486;BME280;53303;47.476;8.084;2023-09-19T12:58:34;95396.25;;;22.47;52.60
66486;BME280;53303;47.476;8.084;2023-09-19T13:01:00;95396.19;;;22.53;52.68
66486;BME280;53303;47.476;8.084;2023-09-19T13:03:30;95393.25;;;22.45;52.80
66486;BME280;53303;47.476;8.084;2023-09-19T13:06:01;95401.22;;;22.54;52.71
66486;BME280;53303;47.476;8.084;2023-09-19T13:08:36;95393.63;;;22.55;52.69
66486;BME280;53303;47.476;8.084;2023-09-19T13:11:13;95385.72;;;22.40;53.02
66486;BME280;53303;47.476;8.084;2023-09-19T13:16:26;95382.06;;;22.51;52.46
66486;BME280;53303;47.476;8.084;2023-09-19T13:18:56;95394.63;;;22.57;52.52
66486;BME280;53303;47.476;8.084;2023-09-19T13:21:34;95381.25;;;22.56;52.49
66486;BME280;53303;47.476;8.084;2023-09-19T13:24:24;95388.84;;;22.55;52.40
66486;BME280;53303;47.476;8.084;2023-09-19T13:26:53;95391.31;;;22.59;52.36
66486;BME280;53303;47.476;8.084;2023-09-19T13:29:18;95380.41;;;22.61;52.37
66486;BME280;53303;47.476;8.084;2023-09-19T13:31:51;95379.91;;;22.62;52.16
66486;BME280;53303;47.476;8.084;2023-09-19T13:34:22;95371.31;;;22.60;52.25
66486;BME280;53303;47.476;8.084;2023-09-19T13:36:49;95376.28;;;22.68;52.30
66486;BME280;53303;47.476;8.084;2023-09-19T13:39:16;95375.78;;;22.69;52.13
66486;BME280;53303;47.476;8.084;2023-09-19T13:41:47;95376.06;;;22.66;52.35
66486;BME280;53303;47.476;8.084;2023-09-19T13:44:13;95374.69;;;22.72;52.20
66486;BME280;53303;47.476;8.084;2023-09-19T13:46:39;95365.16;;;22.68;52.07
66486;BME280;53303;47.476;8.084;2023-09-19T13:49:10;95362.09;;;22.71;52.07
66486;BME280;53303;47.476;8.084;2023-09-19T13:51:38;95362.53;;;22.75;51.94
66486;BME280;53303;47.476;8.084;2023-09-19T13:54:03;95345.69;;;22.68;51.94
66486;BME280;53303;47.476;8.084;2023-09-19T13:56:29;95359.22;;;22.77;51.95
66486;BME280;53303;47.476;8.084;2023-09-19T13:58:56;95357.63;;;22.81;51.86
66486;BME280;53303;47.476;8.084;2023-09-19T14:01:22;95336.97;;;22.77;51.76
66486;BME280;53303;47.476;8.084;2023-09-19T14:03:47;95338.38;;;22.84;51.87
66486;BME280;53303;47.476;8.084;2023-09-19T14:06:19;95322.00;;;22.80;51.75